Marfret Guyane — FNMV — position and weather

sailwx.info

Track history (hours):
 
Tides and Currents Weather Stations Pressure Air Temp Water Temp Dewpoint Dewpoint Depression Visibility Wind Speed Wind Dir Waves Ship Positions

Marfret Guyane

Last reported at 2015-May-08 22:31 UTC. Time now 2015-May-30 12:30 UTC.
Position N 13°56' W 062°29'.
Warning: this ship's position is 21 days out of date.

Length 170 m; draft 8.5 m.

Type: Ship (hazmat cat A). MMSI: 226324000.

Date/timePositionNaut miles runAvg speedWind from/ knotsBaromVisibWave heightAir tempDewpointWater temp
2015-May-08 22:31N 13°56' W 062°29'22618.9
2015-May-08 10:33N 17°40' W 063°06'1817.7
2015-May-08 09:32N 17°58' W 063°05'3 0.2
2015-May-07 17:16N 18°00' W 063°04'4 5.3
2015-May-07 16:31N 17°57' W 063°02'  
2015-May-02 16:33N 36°49' W 026°36'1817.6
2015-May-02 15:34N 36°58' W 026°17'1817.6
2015-May-02 14:34N 37°07' W 025°58'1717.4
2015-May-02 13:34N 37°16' W 025°39'1817.6
2015-May-02 12:34N 37°27' W 025°22'1817.7
2015-May-02 11:34N 37°38' W 025°05'1817.9
2015-May-02 10:34N 37°46' W 024°45'1818.2
2015-May-02 09:34N 37°57' W 024°26'1918.5
2015-May-02 08:34N 38°09' W 024°08'  
2015-Apr-29 15:32N 50°02' W 002°42'7617.8
2015-Apr-29 11:16N 49°42' W 000°48'1419.8
2015-Apr-29 10:34N 49°33' W 000°31'1818.1
2015-Apr-29 09:34N 49°30' W 000°03'9 8.9
2015-Apr-29 08:33N 49°29' E 000°10'0 0.0
2015-Apr-29 07:33N 49°29' E 000°10'0 0.0
2015-Apr-29 06:33N 49°29' E 000°10'0 0.0
2015-Apr-29 05:33N 49°29' E 000°10'0 0.0
2015-Apr-29 04:33N 49°29' E 000°10'0 0.0
2015-Apr-29 03:33N 49°29' E 000°10'0 0.0
2015-Apr-29 02:33N 49°29' E 000°10'0 0.0
2015-Apr-29 01:33N 49°29' E 000°10'0 0.0
2015-Apr-29 00:30N 49°29' E 000°10'0 0.0
2015-Apr-28 23:33N 49°29' E 000°10'  
Track history (hours):
 
Tides and Currents Weather Stations Pressure Air Temp Water Temp Dewpoint Dewpoint Depression Visibility Wind Speed Wind Dir Waves Ship Positions

Marfret Guyane

Last reported at 2015-May-08 22:31 UTC. Time now 2015-May-30 12:30 UTC.
Position N 13°56' W 062°29'.
Warning: this ship's position is 21 days out of date.

Length 170 m; draft 8.5 m.

Type: Ship (hazmat cat A). MMSI: 226324000.

Date/timePositionNaut miles runAvg speedWind from/ knotsBaromVisibWave heightAir tempDewpointWater temp
2015-May-08 22:31N 13°56' W 062°29'22618.9
2015-May-08 10:33N 17°40' W 063°06'1817.7
2015-May-08 09:32N 17°58' W 063°05'3 0.2
2015-May-07 17:16N 18°00' W 063°04'4 5.3
2015-May-07 16:31N 17°57' W 063°02'  
2015-May-02 16:33N 36°49' W 026°36'1817.6
2015-May-02 15:34N 36°58' W 026°17'1817.6
2015-May-02 14:34N 37°07' W 025°58'1717.4
2015-May-02 13:34N 37°16' W 025°39'1817.6
2015-May-02 12:34N 37°27' W 025°22'1817.7
2015-May-02 11:34N 37°38' W 025°05'1817.9
2015-May-02 10:34N 37°46' W 024°45'1818.2
2015-May-02 09:34N 37°57' W 024°26'1918.5
2015-May-02 08:34N 38°09' W 024°08'  
2015-Apr-29 15:32N 50°02' W 002°42'7617.8
2015-Apr-29 11:16N 49°42' W 000°48'1419.8
2015-Apr-29 10:34N 49°33' W 000°31'1818.1
2015-Apr-29 09:34N 49°30' W 000°03'9 8.9
2015-Apr-29 08:33N 49°29' E 000°10'0 0.0
2015-Apr-29 07:33N 49°29' E 000°10'0 0.0
2015-Apr-29 06:33N 49°29' E 000°10'0 0.0
2015-Apr-29 05:33N 49°29' E 000°10'0 0.0
2015-Apr-29 04:33N 49°29' E 000°10'0 0.0
2015-Apr-29 03:33N 49°29' E 000°10'0 0.0
2015-Apr-29 02:33N 49°29' E 000°10'0 0.0
2015-Apr-29 01:33N 49°29' E 000°10'0 0.0
2015-Apr-29 00:30N 49°29' E 000°10'0 0.0
2015-Apr-28 23:33N 49°29' E 000°10'  

Dump ship's entire track history